Time;durP1;ratioP1;P1;durP2;ratioP2;P2;SDS_P1;SDS_P2;PMS_P1;PMS_P2;Temp;Humidity;BMP_temperature;BMP_pressure;BME280_temperature;BME280_humidity;BME280_pressure;Samples;Min_cycle;Max_cycle;Signal;HPM_P1;HPM_P2
2022/05/03 00:02:15;;;;;;;12.67;7.30;;;;;;;16.91;56.47;100425.69;5021258;28;20304;-66
2022/05/03 00:04:56;;;;;;;11.47;7.60;;;;;;;16.91;56.38;100423.00;5023657;28;20292;-66
2022/05/03 00:07:28;;;;;;;11.27;7.60;;;;;;;16.91;56.36;100425.69;5022544;28;20235;-66
2022/05/03 00:10:03;;;;;;;8.50;7.07;;;;;;;16.90;56.70;100418.66;5023839;28;20211;-66
2022/05/03 00:12:41;;;;;;;11.40;7.03;;;;;;;16.90;56.46;100418.66;5023333;28;20295;-66
2022/05/03 00:15:09;;;;;;;11.47;7.73;;;;;;;16.89;56.97;100419.66;5020458;28;20684;-67
2022/05/03 00:17:43;;;;;;;11.27;7.13;;;;;;;16.88;56.89;100428.75;5023043;28;20704;-67
2022/05/03 00:20:11;;;;;;;12.53;8.00;;;;;;;16.87;57.00;100416.38;5022441;28;20208;-67
2022/05/03 00:22:39;;;;;;;12.33;7.90;;;;;;;16.88;57.13;100410.00;5021975;28;20286;-67
2022/05/03 00:25:08;;;;;;;15.23;8.40;;;;;;;16.87;57.19;100419.06;5022719;28;20204;-67
2022/05/03 00:27:37;;;;;;;10.93;7.27;;;;;;;16.83;57.08;100420.44;5024098;28;20297;-67
2022/05/03 00:30:08;;;;;;;13.20;8.20;;;;;;;16.84;56.99;100416.75;5023469;28;20200;-67
2022/05/03 00:32:39;;;;;;;12.60;8.30;;;;;;;16.83;57.09;100414.25;5024664;28;20602;-67
2022/05/03 00:35:09;;;;;;;11.07;7.73;;;;;;;16.80;57.24;100415.44;5023839;28;20320;-67
2022/05/03 00:37:38;;;;;;;10.40;7.17;;;;;;;16.78;57.13;100412.16;5021946;28;20205;-67
2022/05/03 00:40:07;;;;;;;11.57;7.67;;;;;;;16.75;57.20;100407.16;5022886;28;20211;-67
2022/05/03 00:42:47;;;;;;;10.00;7.67;;;;;;;16.76;56.54;100398.13;5025877;28;20562;-67
2022/05/03 00:45:32;;;;;;;12.27;7.40;;;;;;;16.75;56.86;100396.47;5021705;28;20201;-67
2022/05/03 00:48:08;;;;;;;9.87;6.87;;;;;;;16.76;57.05;100403.47;5021680;28;20264;-67
2022/05/03 00:50:43;;;;;;;10.03;7.80;;;;;;;16.76;56.84;100392.78;5022627;28;20209;-67
2022/05/03 00:53:17;;;;;;;8.70;7.20;;;;;;;16.73;56.73;100406.53;5024326;28;20449;-67
2022/05/03 00:56:08;;;;;;;10.93;7.43;;;;;;;16.75;57.27;100414.38;5020826;28;20338;-67
2022/05/03 00:58:50;;;;;;;10.57;7.53;;;;;;;16.72;56.86;100398.69;5020674;28;20292;-67
2022/05/03 01:01:31;;;;;;;11.90;7.60;;;;;;;16.70;57.55;100404.25;5023994;28;20209;-67
2022/05/03 01:04:20;;;;;;;10.10;7.67;;;;;;;16.68;57.55;100400.09;5023305;28;20220;-67
2022/05/03 01:06:57;;;;;;;11.37;7.87;;;;;;;16.69;57.29;100407.94;5022381;28;20299;-67
2022/05/03 01:09:34;;;;;;;10.27;7.87;;;;;;;16.68;56.81;100398.25;5023891;28;20212;-68
2022/05/03 01:12:23;;;;;;;13.17;8.23;;;;;;;16.64;57.25;100401.47;5023844;28;20232;-67
2022/05/03 01:15:11;;;;;;;13.97;7.73;;;;;;;16.61;57.05;100400.03;5021297;28;20665;-67
2022/05/03 01:17:44;;;;;;;9.27;7.70;;;;;;;16.62;57.06;100396.34;5020855;28;20681;-67
2022/05/03 01:20:16;;;;;;;12.67;7.67;;;;;;;16.61;57.02;100393.81;5019533;28;20213;-67
2022/05/03 01:23:23;;;;;;;9.93;7.40;;;;;;;16.58;57.09;100396.84;5020027;28;20237;-67
2022/05/03 01:26:05;;;;;;;10.30;7.37;;;;;;;16.58;56.75;100399.53;5005663;28;20295;-67
2022/05/03 01:28:50;;;;;;;10.07;7.90;;;;;;;16.55;57.31;100398.88;5023481;28;20736;-67
2022/05/03 01:31:18;;;;;;;11.50;7.37;;;;;;;16.56;57.34;100405.06;5020745;28;20653;-67
2022/05/03 01:33:46;;;;;;;13.70;8.40;;;;;;;16.56;56.97;100405.06;5020935;28;20209;-68
2022/05/03 01:36:36;;;;;;;10.67;7.43;;;;;;;16.57;56.80;100409.41;5022241;28;20235;-67
2022/05/03 01:39:14;;;;;;;9.80;7.73;;;;;;;16.54;57.14;100405.25;5021003;28;20208;-67
2022/05/03 01:41:49;;;;;;;10.80;8.17;;;;;;;16.51;56.92;100402.97;5023253;28;20205;-66
2022/05/03 01:44:36;;;;;;;11.03;7.90;;;;;;;16.47;57.36;100408.88;5022764;28;20739;-67
2022/05/03 01:47:18;;;;;;;11.07;7.80;;;;;;;16.48;57.15;100407.84;5018728;28;20204;-66
2022/05/03 01:53:05;;;;;;;10.20;7.87;;;;;;;16.37;57.60;100405.66;5020416;28;20211;-66
2022/05/03 01:55:53;;;;;;;12.40;8.80;;;;;;;16.35;57.64;100410.38;5023274;28;20225;-66
2022/05/03 01:58:31;;;;;;;9.37;7.53;;;;;;;16.32;57.72;100405.41;5023730;28;20232;-67
2022/05/03 02:01:04;;;;;;;12.57;7.73;;;;;;;16.32;57.41;100410.75;5019534;28;20208;-67
2022/05/03 02:03:45;;;;;;;10.67;7.63;;;;;;;16.30;57.45;100402.06;5022397;28;20220;-67
2022/05/03 02:06:14;;;;;;;14.07;8.07;;;;;;;16.28;57.38;100396.91;5020645;28;20737;-67
2022/05/03 02:08:53;;;;;;;10.40;7.77;;;;;;;16.27;57.81;100408.63;5019081;28;20256;-66
2022/05/03 02:11:38;;;;;;;12.20;8.33;;;;;;;16.23;57.74;100403.84;5023356;28;20208;-66
2022/05/03 02:17:11;;;;;;;11.00;7.97;;;;;;;16.21;58.09;100403.19;5020805;28;20346;-66
2022/05/03 02:20:09;;;;;;;13.47;7.60;;;;;;;16.17;58.18;100398.22;5021662;28;20212;-68
2022/05/03 02:22:55;;;;;;;11.87;8.80;;;;;;;16.14;58.48;100405.78;5021470;28;20204;-66
2022/05/03 02:25:37;;;;;;;13.53;8.80;;;;;;;16.13;58.28;100398.78;5017527;28;20292;-66
2022/05/03 02:28:23;;;;;;;11.10;8.73;;;;;;;16.08;58.33;100394.00;5020540;28;20212;-66
2022/05/03 02:31:08;;;;;;;13.77;8.30;;;;;;;16.03;58.46;100401.72;5019842;28;20204;-67
2022/05/03 02:33:43;;;;;;;12.97;8.47;;;;;;;16.00;59.12;100403.97;5019405;28;20217;-67
2022/05/03 02:36:24;;;;;;;10.20;8.30;;;;;;;15.98;58.34;100403.31;5022495;28;20319;-67
2022/05/03 02:38:59;;;;;;;12.50;8.47;;;;;;;15.98;58.31;100401.47;5025703;28;20216;-66
2022/05/03 02:41:31;;;;;;;11.87;8.47;;;;;;;16.00;58.32;100402.13;5022300;28;20201;-67
2022/05/03 02:44:00;;;;;;;11.17;7.63;;;;;;;15.97;58.59;100399.78;5026496;28;20740;-68
2022/05/03 02:47:01;;;;;;;13.73;7.87;;;;;;;15.99;58.12;100399.63;5025094;28;20205;-67
2022/05/03 02:49:42;;;;;;;10.60;8.07;;;;;;;15.97;58.38;100399.78;5026517;28;20319;-67
2022/05/03 02:52:23;;;;;;;11.27;8.07;;;;;;;15.97;58.65;100394.44;5019489;28;20209;-67
2022/05/03 02:55:03;;;;;;;11.27;8.23;;;;;;;15.96;58.43;100398.13;5020946;28;20228;-67
2022/05/03 02:57:42;;;;;;;11.50;8.27;;;;;;;15.95;58.33;100399.16;5021040;28;20212;-67
2022/05/03 03:03:37;;;;;;;11.87;8.40;;;;;;;15.90;58.78;100400.72;5023503;28;20280;-67
2022/05/03 03:06:17;;;;;;;11.40;8.73;;;;;;;15.86;58.83;100400.25;5011560;28;20209;-67
2022/05/03 03:08:47;;;;;;;13.33;9.37;;;;;;;15.83;58.97;100405.97;5023306;28;20574;-67
2022/05/03 03:11:30;;;;;;;10.37;8.37;;;;;;;15.86;58.66;100394.06;5024279;28;20232;-67
2022/05/03 03:14:22;;;;;;;15.90;9.97;;;;;;;15.80;58.83;100392.97;5023462;28;21387;-67
2022/05/03 03:16:55;;;;;;;11.60;9.30;;;;;;;15.76;59.36;100399.69;5023711;28;20235;-67
2022/05/03 03:19:57;;;;;;;12.40;8.97;;;;;;;15.76;59.35;100402.34;5023952;28;20427;-67
2022/05/03 03:22:32;;;;;;;15.53;9.90;;;;;;;15.75;59.57;100395.34;5017455;28;20217;-67
2022/05/03 03:25:02;;;;;;;12.43;9.23;;;;;;;15.76;59.29;100397.00;5022312;28;20203;-67
2022/05/03 03:27:33;;;;;;;10.97;9.10;;;;;;;15.69;59.43;100404.09;5019495;28;20213;-67
2022/05/03 03:30:04;;;;;;;12.73;9.27;;;;;;;15.65;59.82;100403.66;5023971;28;20232;-67
2022/05/03 03:32:33;;;;;;;12.83;9.33;;;;;;;15.67;59.70;100403.44;5020743;28;20312;-67
2022/05/03 03:35:02;;;;;;;12.87;9.73;;;;;;;15.66;59.93;100416.00;5020339;28;20610;-67
2022/05/03 03:37:34;;;;;;;14.43;9.10;;;;;;;15.67;59.79;100409.63;5021942;28;20648;-67
2022/05/03 03:40:04;;;;;;;11.30;8.80;;;;;;;15.64;59.88;100407.34;5024606;28;20333;-67
2022/05/03 03:42:32;;;;;;;13.13;8.73;;;;;;;15.62;59.65;100414.72;5023335;28;20220;-66
2022/05/03 03:45:01;;;;;;;12.67;8.47;;;;;;;15.62;59.72;100411.19;5022807;28;20241;-66
2022/05/03 03:47:30;;;;;;;11.70;9.67;;;;;;;15.53;59.83;100410.41;5020269;28;20301;-66
2022/05/03 03:49:59;;;;;;;11.00;9.00;;;;;;;15.53;59.67;100417.59;5019499;28;20247;-66
2022/05/03 03:52:27;;;;;;;12.33;8.67;;;;;;;15.52;60.04;100411.44;5024970;28;20670;-67
2022/05/03 03:54:58;;;;;;;11.27;8.83;;;;;;;15.56;59.86;100409.25;5021476;28;20226;-67
2022/05/03 03:57:41;;;;;;;11.73;9.33;;;;;;;15.55;59.73;100413.78;5023884;28;20712;-67
2022/05/03 04:00:12;;;;;;;14.07;9.23;;;;;;;15.54;59.99;100422.81;5024868;28;20290;-67
2022/05/03 04:02:42;;;;;;;11.80;8.93;;;;;;;15.56;59.92;100415.44;5023194;28;20205;-67
2022/05/03 04:05:15;;;;;;;12.30;9.73;;;;;;;15.55;59.87;100418.28;5022494;28;20317;-67
2022/05/03 04:07:43;;;;;;;14.63;9.67;;;;;;;15.53;59.92;100420.28;5026855;28;20244;-67
2022/05/03 04:10:12;;;;;;;16.27;10.47;;;;;;;15.51;59.67;100419.63;5024871;28;20197;-67
2022/05/03 04:12:40;;;;;;;12.10;8.90;;;;;;;15.51;59.66;100425.78;5028145;28;20666;-67
2022/05/03 04:15:13;;;;;;;13.47;9.20;;;;;;;15.45;60.18;100423.84;5027453;28;20204;-67
2022/05/03 04:17:48;;;;;;;12.43;9.43;;;;;;;15.43;60.28;100431.22;5025164;28;20351;-67
2022/05/03 04:20:16;;;;;;;11.03;8.53;;;;;;;15.42;60.12;100427.72;5025828;28;20290;-67
2022/05/03 04:22:44;;;;;;;14.73;10.07;;;;;;;15.40;60.20;100432.41;5025189;28;20654;-67
2022/05/03 04:25:13;;;;;;;12.57;9.37;;;;;;;15.36;60.27;100423.09;5024445;28;20922;-66
2022/05/03 04:27:41;;;;;;;11.67;9.10;;;;;;;15.37;60.25;100427.44;5029463;28;20217;-66
2022/05/03 04:30:09;;;;;;;16.67;9.57;;;;;;;15.34;60.55;100427.78;5025083;28;20216;-66
2022/05/03 04:32:37;;;;;;;14.77;9.80;;;;;;;15.32;60.44;100424.47;5026503;28;20212;-67
2022/05/03 04:35:05;;;;;;;13.20;10.10;;;;;;;15.32;61.03;100429.78;5023440;28;20205;-66
2022/05/03 04:37:47;;;;;;;14.03;9.87;;;;;;;15.34;60.62;100426.94;5020263;28;20784;-67
2022/05/03 04:40:16;;;;;;;11.93;9.53;;;;;;;15.30;60.90;100426.47;5024295;28;20592;-66
2022/05/03 04:42:45;;;;;;;12.37;9.20;;;;;;;15.32;60.98;100432.47;5022949;28;20316;-67
2022/05/03 04:45:13;;;;;;;13.97;9.90;;;;;;;15.30;61.42;100425.66;5023155;28;20212;-66
2022/05/03 04:47:41;;;;;;;14.57;10.60;;;;;;;15.27;61.36;100429.53;5024232;28;20641;-66
2022/05/03 04:50:11;;;;;;;13.43;9.30;;;;;;;15.26;61.11;100429.69;5020951;28;20244;-67
2022/05/03 04:52:39;;;;;;;15.97;10.13;;;;;;;15.29;61.05;100430.19;5020858;28;20238;-67
2022/05/03 04:55:08;;;;;;;13.47;10.07;;;;;;;15.30;61.06;100431.81;5024415;28;20621;-67
2022/05/03 04:57:37;;;;;;;13.93;9.07;;;;;;;15.33;61.14;100436.81;5024252;28;20243;-66
2022/05/03 05:00:06;;;;;;;11.37;9.13;;;;;;;15.32;61.40;100435.13;5020468;28;20304;-66
2022/05/03 05:02:34;;;;;;;14.63;9.37;;;;;;;15.33;61.27;100441.31;5023275;28;20255;-67
2022/05/03 05:05:02;;;;;;;12.87;9.37;;;;;;;15.31;61.53;100444.16;5022693;28;20219;-67
2022/05/03 05:07:30;;;;;;;12.73;9.70;;;;;;;15.31;61.34;100441.50;5021839;28;20212;-67
2022/05/03 05:12:44;;;;;;;14.40;9.43;;;;;;;15.33;61.42;100463.53;5022876;28;20233;-67
2022/05/03 05:15:12;;;;;;;14.53;9.10;;;;;;;15.36;61.10;100457.84;5019417;28;20526;-67
2022/05/03 05:17:40;;;;;;;12.37;9.67;;;;;;;15.36;61.24;100465.00;5021263;28;20637;-67
2022/05/03 05:20:08;;;;;;;13.20;9.20;;;;;;;15.37;61.53;100456.00;5021403;28;20223;-67
2022/05/03 05:22:36;;;;;;;12.83;9.83;;;;;;;15.40;61.61;100461.78;5022847;28;20687;-66
2022/05/03 05:25:04;;;;;;;11.77;9.50;;;;;;;15.43;61.12;100458.78;5021364;28;20493;-67
2022/05/03 05:27:32;;;;;;;12.37;9.27;;;;;;;15.46;61.15;100456.75;5020253;28;20244;-66
2022/05/03 05:30:01;;;;;;;13.73;9.60;;;;;;;15.49;61.19;100461.72;5020111;28;20213;-66
2022/05/03 05:32:29;;;;;;;12.83;9.57;;;;;;;15.51;61.09;100460.53;5023008;28;20223;-66
2022/05/03 05:34:57;;;;;;;14.90;9.67;;;;;;;15.48;61.31;100463.56;5019852;28;20212;-67
2022/05/03 05:37:24;;;;;;;14.93;8.97;;;;;;;15.51;61.20;100457.03;5022723;28;20326;-66
2022/05/03 05:39:52;;;;;;;10.63;9.17;;;;;;;15.51;61.11;100457.88;5019315;28;20260;-68
2022/05/03 05:42:20;;;;;;;14.13;10.00;;;;;;;15.51;61.81;100465.06;5022777;28;20266;-67
2022/05/03 05:44:48;;;;;;;11.27;9.70;;;;;;;15.51;61.40;100465.06;5025045;28;20231;-67
2022/05/03 05:47:18;;;;;;;12.53;9.90;;;;;;;15.49;61.67;100462.56;5024693;28;20216;-67
2022/05/03 05:49:45;;;;;;;12.60;9.33;;;;;;;15.47;61.85;100458.41;5025998;28;20244;-67
2022/05/03 05:55:02;;;;;;;14.30;9.77;;;;;;;15.48;61.88;100460.88;5021065;28;20212;-66
2022/05/03 05:57:29;;;;;;;13.30;10.30;;;;;;;15.61;61.93;100476.34;5021456;28;20556;-67
2022/05/03 05:59:57;;;;;;;14.80;10.03;;;;;;;15.60;62.13;100472.03;5018215;28;20498;-68
2022/05/03 06:02:26;;;;;;;15.87;10.10;;;;;;;15.62;62.07;100472.69;5022225;28;20204;-68
2022/05/03 06:04:54;;;;;;;12.40;9.73;;;;;;;15.60;62.04;100480.03;5019166;28;20685;-68
2022/05/03 06:07:22;;;;;;;12.53;10.07;;;;;;;15.59;62.38;100475.69;5019840;28;20543;-68
2022/05/03 06:09:50;;;;;;;15.33;10.23;;;;;;;15.62;62.55;100478.03;5021616;28;20209;-67
2022/05/03 06:12:19;;;;;;;13.63;10.47;;;;;;;15.66;62.08;100476.63;5018953;28;20254;-67
2022/05/03 06:14:46;;;;;;;14.03;9.77;;;;;;;15.68;62.60;100471.94;5021043;28;20751;-67
2022/05/03 06:17:14;;;;;;;15.17;9.87;;;;;;;15.67;62.57;100480.97;5020600;28;20337;-68
2022/05/03 06:19:43;;;;;;;13.77;9.97;;;;;;;15.69;62.57;100485.13;5022737;28;20212;-67
2022/05/03 06:22:11;;;;;;;14.27;10.10;;;;;;;15.71;62.45;100484.97;5022315;28;20297;-67
2022/05/03 06:24:39;;;;;;;14.90;10.33;;;;;;;15.74;62.26;100489.97;5026463;28;20303;-67
2022/05/03 06:27:07;;;;;;;16.57;9.70;;;;;;;15.77;62.13;100485.06;5026915;28;20647;-67
2022/05/03 06:29:35;;;;;;;12.83;9.40;;;;;;;15.79;62.72;100485.72;5023639;28;20228;-67
2022/05/03 06:32:03;;;;;;;14.93;10.67;;;;;;;16.07;62.05;100495.81;5023703;28;20539;-68
2022/05/03 06:34:30;;;;;;;17.40;10.77;;;;;;;15.99;61.64;100493.22;5026455;28;20303;-67
2022/05/03 06:37:00;;;;;;;14.03;10.03;;;;;;;15.95;62.13;100490.06;5027529;28;20235;-67
2022/05/03 06:39:30;;;;;;;14.17;9.10;;;;;;;15.96;61.53;100494.41;5024788;28;20236;-67
2022/05/03 06:41:58;;;;;;;16.07;10.53;;;;;;;15.95;62.07;100492.75;5027906;28;20564;-67
2022/05/03 06:44:26;;;;;;;15.13;9.80;;;;;;;15.95;62.62;100499.94;5024146;28;20663;-67
2022/05/03 06:46:53;;;;;;;14.27;9.23;;;;;;;15.97;62.44;100498.75;5026870;28;20391;-64
2022/05/03 06:49:21;;;;;;;13.23;10.03;;;;;;;16.00;62.21;100501.06;5021168;28;20252;-66
2022/05/03 06:51:49;;;;;;;13.87;10.37;;;;;;;15.99;62.24;100501.25;5026985;28;20296;-65
2022/05/03 06:54:18;;;;;;;14.50;10.03;;;;;;;15.96;62.65;100501.59;5022985;28;20718;-66
2022/05/03 06:56:46;;;;;;;13.13;10.07;;;;;;;15.98;62.63;100503.09;5022797;28;20323;-66
2022/05/03 06:59:13;;;;;;;14.63;10.23;;;;;;;15.99;62.76;100509.28;5027208;28;20500;-66
2022/05/03 07:01:42;;;;;;;15.97;10.20;;;;;;;16.00;62.78;100503.75;5022131;28;20213;-66
2022/05/03 07:04:12;;;;;;;14.67;10.70;;;;;;;15.99;62.12;100511.94;5028587;28;20209;-66
2022/05/03 07:06:40;;;;;;;15.40;10.30;;;;;;;16.00;62.25;100505.59;5029442;28;20245;-67
2022/05/03 07:09:08;;;;;;;11.40;9.40;;;;;;;16.03;62.36;100511.38;5026970;28;20216;-66
2022/05/03 07:11:37;;;;;;;16.17;10.47;;;;;;;16.06;62.32;100508.34;5028437;28;20291;-66
2022/05/03 07:14:05;;;;;;;18.63;11.23;;;;;;;16.07;62.60;100515.38;5027908;28;20208;-66
2022/05/03 07:16:32;;;;;;;14.93;10.43;;;;;;;16.10;62.30;100509.63;5028485;28;20205;-66
2022/05/03 07:24:41;;;;;;;15.03;10.23;;;;;;;16.13;61.14;100519.97;5033859;28;20683;-67
2022/05/03 07:27:10;;;;;;;12.37;8.87;;;;;;;16.17;61.29;100528.47;5028405;28;20208;-68
2022/05/03 07:29:38;;;;;;;15.77;10.20;;;;;;;16.21;61.27;100516.38;5030325;28;20658;-68
2022/05/03 07:32:07;;;;;;;12.80;10.10;;;;;;;16.23;61.50;100526.91;5030842;28;20205;-67
2022/05/03 07:34:34;;;;;;;17.57;10.00;;;;;;;16.26;61.20;100522.03;5028283;28;20231;-67
2022/05/03 07:37:02;;;;;;;16.97;10.93;;;;;;;16.30;60.84;100525.16;5028575;28;20255;-67
2022/05/03 07:39:31;;;;;;;15.33;10.97;;;;;;;16.26;60.81;100526.56;5028070;28;20212;-66
2022/05/03 07:41:58;;;;;;;17.07;11.50;;;;;;;16.31;60.99;100537.53;5028220;28;20211;-67
2022/05/03 07:44:27;;;;;;;14.40;10.73;;;;;;;16.37;61.63;100531.44;5026391;28;20201;-67
2022/05/03 07:46:57;;;;;;;17.63;10.47;;;;;;;16.41;61.91;100535.41;5026440;28;20207;-67
2022/05/03 07:49:24;;;;;;;14.07;10.60;;;;;;;16.41;61.36;100533.56;5025557;28;20527;-68
2022/05/03 07:51:52;;;;;;;12.57;9.77;;;;;;;16.45;61.49;100529.50;5029853;28;20216;-67
2022/05/03 07:54:20;;;;;;;16.20;10.57;;;;;;;16.51;61.41;100533.28;5028170;28;20307;-68
2022/05/03 07:56:53;;;;;;;15.10;11.00;;;;;;;16.52;61.24;100541.13;5028016;28;20296;-67
2022/05/03 07:59:23;;;;;;;15.00;10.37;;;;;;;16.55;60.94;100535.41;5027650;28;20256;-67
2022/05/03 08:01:52;;;;;;;11.23;9.90;;;;;;;16.63;60.75;100539.03;5028637;28;20205;-68
2022/05/03 08:04:20;;;;;;;13.20;9.63;;;;;;;16.70;60.50;100532.75;5027484;28;20208;-68
2022/05/03 08:06:48;;;;;;;13.83;10.30;;;;;;;16.77;60.57;100535.53;5028590;28;20298;-68
2022/05/03 08:09:16;;;;;;;13.97;10.13;;;;;;;16.87;60.38;100539.56;5028154;28;20209;-67
2022/05/03 08:11:43;;;;;;;18.50;10.87;;;;;;;17.02;60.04;100536.84;5028343;28;20209;-68
2022/05/03 08:14:11;;;;;;;15.93;10.23;;;;;;;17.11;59.59;100537.56;5023800;28;20263;-66
2022/05/03 08:16:39;;;;;;;14.83;10.07;;;;;;;17.19;59.89;100538.28;5029789;28;20580;-67
2022/05/03 08:19:08;;;;;;;12.57;9.53;;;;;;;17.20;60.00;100544.47;5029586;28;20624;-66
2022/05/03 08:21:47;;;;;;;15.40;10.07;;;;;;;17.21;59.36;100548.81;5027687;28;20573;-66
2022/05/03 08:24:15;;;;;;;13.30;10.10;;;;;;;17.17;60.08;100550.22;5026725;28;20219;-66
2022/05/03 08:26:42;;;;;;;16.63;10.97;;;;;;;17.17;59.62;100544.84;5027812;28;20205;-68
2022/05/03 08:29:10;;;;;;;16.07;10.90;;;;;;;17.18;60.01;100536.63;5026936;28;20215;-67
2022/05/03 08:31:38;;;;;;;16.43;10.27;;;;;;;17.22;59.61;100548.66;5031314;28;20201;-67
2022/05/03 08:34:07;;;;;;;14.30;10.37;;;;;;;17.25;59.51;100544.72;5027202;28;20518;-67
2022/05/03 08:36:35;;;;;;;19.27;11.10;;;;;;;17.27;59.40;100553.41;5026099;28;20208;-67
2022/05/03 08:42:06;;;;;;;18.57;10.17;;;;;;;17.42;58.88;100545.31;5028885;28;20303;-67
2022/05/03 08:44:35;;;;;;;16.13;10.73;;;;;;;17.54;58.60;100547.31;5026718;28;20737;-67
2022/05/03 08:47:04;;;;;;;18.17;10.90;;;;;;;17.62;58.79;100549.91;5027407;28;20215;-67
2022/05/03 08:49:40;;;;;;;15.23;9.77;;;;;;;17.67;57.72;100550.16;5027249;28;20272;-66
2022/05/03 08:52:09;;;;;;;12.50;9.10;;;;;;;17.75;58.33;100548.38;5023911;28;20547;-67
2022/05/03 08:54:37;;;;;;;17.27;9.83;;;;;;;17.84;59.17;100552.59;5026885;28;20304;-68
2022/05/03 08:57:07;;;;;;;18.47;10.60;;;;;;;18.07;57.98;100553.19;5025679;28;20213;-67
2022/05/03 08:59:36;;;;;;;16.07;9.23;;;;;;;18.24;57.63;100557.22;5024842;28;20240;-66
2022/05/03 09:02:04;;;;;;;13.90;9.57;;;;;;;18.38;57.14;100560.84;5026809;28;20226;-66
2022/05/03 09:04:33;;;;;;;14.90;8.90;;;;;;;18.54;56.49;100557.00;5029242;28;20652;-66
2022/05/03 09:07:23;;;;;;;20.70;10.20;;;;;;;18.64;56.02;100568.25;5030348;28;20204;-67
2022/05/03 09:09:53;;;;;;;13.40;8.73;;;;;;;18.79;55.53;100569.78;5027868;28;20300;-66
2022/05/03 09:12:24;;;;;;;14.13;8.67;;;;;;;18.89;54.89;100569.41;5027804;28;20240;-66
2022/05/03 09:14:52;;;;;;;12.30;8.80;;;;;;;18.93;54.53;100569.84;5025641;28;20216;-67
2022/05/03 09:17:38;;;;;;;11.97;8.97;;;;;;;18.89;54.70;100565.91;5026866;28;20220;-67
2022/05/03 09:26:09;;;;;;;15.27;9.63;;;;;;;18.76;55.84;100570.16;5025724;28;20426;-66
2022/05/03 09:28:44;;;;;;;15.47;8.97;;;;;;;18.76;55.49;100563.97;5024912;28;20236;-66
2022/05/03 09:31:12;;;;;;;14.47;9.73;;;;;;;18.71;55.09;100561.06;5026691;28;20208;-67
2022/05/03 09:33:41;;;;;;;14.10;9.90;;;;;;;18.71;55.54;100567.28;5027519;28;20251;-66
2022/05/03 09:36:11;;;;;;;13.87;8.90;;;;;;;18.73;55.35;100564.38;5029146;28;20209;-66
2022/05/03 09:38:59;;;;;;;11.50;9.27;;;;;;;18.71;55.93;100566.44;5026232;28;20225;-66
2022/05/03 09:41:27;;;;;;;18.00;9.57;;;;;;;18.72;55.15;100568.94;5025638;28;20296;-67
2022/05/03 09:44:06;;;;;;;15.97;9.23;;;;;;;18.80;55.75;100559.88;5025034;28;20212;-67
2022/05/03 09:46:51;;;;;;;15.10;8.97;;;;;;;19.08;55.74;100566.00;5025067;28;20201;-67
2022/05/03 09:49:21;;;;;;;15.80;8.67;;;;;;;19.43;54.96;100560.50;5024152;28;20245;-67
2022/05/03 09:51:50;;;;;;;14.40;8.43;;;;;;;19.68;54.09;100558.09;5028944;28;20566;-66
2022/05/03 09:54:19;;;;;;;11.13;7.50;;;;;;;19.78;52.91;100553.16;5028620;28;20521;-67
2022/05/03 09:56:50;;;;;;;10.00;7.30;;;;;;;19.67;53.72;100557.28;5024971;28;20658;-67
2022/05/03 09:59:21;;;;;;;14.93;8.10;;;;;;;19.69;52.98;100555.22;5027419;28;20308;-67
2022/05/03 10:01:49;;;;;;;15.47;8.17;;;;;;;19.69;53.14;100555.22;5027373;28;20201;-67
2022/05/03 10:04:17;;;;;;;16.77;8.60;;;;;;;19.68;52.65;100548.16;5025654;28;20205;-67
2022/05/03 10:06:45;;;;;;;13.27;9.50;;;;;;;19.73;53.61;100550.22;5027827;28;20216;-67
2022/05/03 10:09:14;;;;;;;18.20;9.00;;;;;;;19.77;53.63;100552.31;5028090;28;20627;-67
2022/05/03 10:11:46;;;;;;;12.07;8.00;;;;;;;19.84;53.16;100547.75;5026838;28;20311;-69
2022/05/03 10:14:13;;;;;;;14.40;7.97;;;;;;;20.04;52.44;100546.94;5027697;28;20232;-68
2022/05/03 10:22:19;;;;;;;10.20;7.67;;;;;;;20.67;50.74;100543.53;5027120;28;20230;-69
2022/05/03 10:24:55;;;;;;;9.13;7.33;;;;;;;20.76;50.77;100546.81;5026652;28;20216;-68
2022/05/03 10:27:24;;;;;;;8.80;7.03;;;;;;;20.89;50.07;100538.69;5027351;28;20668;-68
2022/05/03 10:30:18;;;;;;;8.80;7.30;;;;;;;21.04;48.91;100538.41;5026850;28;20613;-67
2022/05/03 10:33:06;;;;;;;11.63;7.00;;;;;;;21.00;49.77;100535.31;5023007;28;20300;-67
2022/05/03 10:35:36;;;;;;;8.83;6.60;;;;;;;20.85;49.79;100533.91;5026439;28;20239;-66
2022/05/03 10:38:07;;;;;;;8.90;6.57;;;;;;;20.95;49.16;100531.59;5026542;28;20208;-67
2022/05/03 10:40:41;;;;;;;7.83;6.13;;;;;;;21.03;49.49;100526.78;5025346;28;20232;-67
2022/05/03 10:43:14;;;;;;;12.70;6.93;;;;;;;21.11;50.16;100523.00;5025643;28;20211;-67
2022/05/03 10:45:53;;;;;;;13.27;7.30;;;;;;;21.14;50.31;100522.59;5024695;28;20204;-68
2022/05/03 10:48:29;;;;;;;10.93;6.30;;;;;;;21.21;49.33;100512.63;5023398;28;20248;-67
2022/05/03 10:51:10;;;;;;;10.20;6.20;;;;;;;21.21;49.01;100512.63;5026514;28;20713;-67
2022/05/03 10:53:40;;;;;;;7.40;5.80;;;;;;;21.16;49.67;100514.28;5027069;28;20657;-68
2022/05/03 10:56:23;;;;;;;8.43;6.30;;;;;;;21.09;48.88;100511.66;5024651;28;20205;-68
2022/05/03 10:59:12;;;;;;;10.07;6.03;;;;;;;21.06;48.50;100505.84;5026344;28;20507;-68
2022/05/03 11:02:11;;;;;;;7.57;5.27;;;;;;;20.97;49.34;100495.31;5027915;28;20227;-68
2022/05/03 11:05:16;;;;;;;9.70;5.53;;;;;;;21.10;49.12;100499.81;5028041;28;20208;-68
2022/05/03 11:08:15;;;;;;;7.53;5.60;;;;;;;21.33;48.62;100481.22;5028624;28;20212;-68
2022/05/03 11:10:45;;;;;;;7.17;4.57;;;;;;;21.62;47.68;100481.66;5028012;28;20207;-67
2022/05/03 11:13:37;;;;;;;8.63;4.97;;;;;;;21.91;46.81;100480.13;5027160;28;20217;-67
2022/05/03 11:16:37;;;;;;;;;;;;;;;;;;;;;
2022/05/03 11:19:10;;;;;;;6.25;4.60;;;;;;;22.51;44.92;100475.81;5023804;28;20212;-67
2022/05/03 11:21:39;;;;;;;8.75;5.45;;;;;;;22.86;43.55;100463.34;5027871;28;20571;-66
2022/05/03 11:24:16;;;;;;;9.63;5.22;;;;;;;23.19;42.80;100467.44;5029458;28;20550;-67
2022/05/03 11:26:44;;;;;;;7.75;5.53;;;;;;;23.38;42.24;100465.50;5028018;28;20646;-67
2022/05/03 11:29:15;;;;;;;7.68;4.88;;;;;;;23.55;41.94;100464.63;5027431;28;20224;-67
2022/05/03 11:31:48;;;;;;;8.10;5.13;;;;;;;23.75;41.30;100456.16;5027796;28;20239;-67
2022/05/03 11:34:19;;;;;;;6.60;4.22;;;;;;;23.92;40.89;100456.31;5026237;28;20201;-67
2022/05/03 11:36:50;;;;;;;7.93;4.30;;;;;;;23.95;40.95;100462.06;5027725;28;20212;-68
2022/05/03 11:39:19;;;;;;;8.32;5.10;;;;;;;23.83;40.92;100450.41;5027876;28;20235;-67
2022/05/03 11:41:47;;;;;;;10.45;5.00;;;;;;;23.73;41.91;100449.34;5026502;28;20566;-68
2022/05/03 11:44:17;;;;;;;8.93;4.57;;;;;;;23.58;41.76;100439.78;5028341;28;20624;-66
2022/05/03 11:46:47;;;;;;;7.07;6.20;;;;;;;23.33;41.90;100441.84;5027397;28;20656;-67
2022/05/03 11:49:18;;;;;;;7.55;5.13;;;;;;;23.19;42.73;100441.22;5025703;28;20327;-66
2022/05/03 11:57:22;;;;;;;6.88;4.70;;;;;;;22.46;44.50;100435.13;5029277;28;20721;-67
2022/05/03 11:59:53;;;;;;;8.20;5.03;;;;;;;22.33;44.33;100436.13;5027740;28;20227;-67
2022/05/03 12:02:22;;;;;;;6.45;4.43;;;;;;;22.26;44.27;100434.53;5029312;28;20271;-66
2022/05/03 12:05:11;;;;;;;11.38;4.82;;;;;;;22.11;44.89;100426.81;5024948;28;20208;-67
2022/05/03 12:07:41;;;;;;;5.82;4.70;;;;;;;21.93;45.55;100435.69;5028597;28;20213;-67
2022/05/03 12:10:16;;;;;;;6.82;4.90;;;;;;;21.93;45.15;100432.16;5027469;28;20201;-66
2022/05/03 12:12:44;;;;;;;7.25;4.60;;;;;;;21.79;45.00;100423.38;5026955;28;20626;-67
2022/05/03 12:15:20;;;;;;;10.20;4.88;;;;;;;21.74;44.77;100420.50;5027219;28;20213;-67
2022/05/03 12:17:52;;;;;;;6.80;5.00;;;;;;;21.71;45.54;100427.19;5029283;28;20211;-68
2022/05/03 12:20:21;;;;;;;11.82;5.15;;;;;;;21.63;45.76;100426.66;5026460;28;20233;-67
2022/05/03 12:23:15;;;;;;;8.27;5.60;;;;;;;21.63;45.59;100422.06;5029562;28;20205;-67
2022/05/03 12:25:43;;;;;;;10.63;4.77;;;;;;;21.64;45.36;100417.47;5029062;28;20209;-66